Macuru Arrow — C6YH3 — position and weather

sailwx.info

Track history (hours):
 
Tides and Currents Weather Stations Pressure Air Temp Water Temp Dewpoint Dewpoint Depression Visibility Wind Speed Wind Dir Waves Ship Positions

Macuru Arrow

Last reported at 2017-Apr-15 14:32 UTC. Time now 2017-Apr-28 22:00 UTC.
Position N 25°30' W 015°36'.
Warning: this ship's position is 13 days out of date.

Length 225 m; draft 8.6 m.

Type: Cargo ship. MMSI: 311032500.

Date/timePositionNaut miles runAvg speedWind from/ knotsBaromVisibWave heightAir tempDewpointWater temp
2017-Apr-15 14:32N 25°30' W 015°36'1214.3
2017-Apr-15 13:40N 25°41' W 015°29'614.1
2017-Apr-15 13:13N 25°47' W 015°26'414.2
2017-Apr-15 12:59N 25°50' W 015°25'714.4
2017-Apr-15 12:30N 25°56' W 015°21'714.5
2017-Apr-15 12:00N 26°03' W 015°18'714.1
2017-Apr-15 11:30N 26°09' W 015°14'714.0
2017-Apr-15 11:00N 26°15' W 015°11'1214.2
2017-Apr-15 10:11N 26°25' W 015°03'314.2
2017-Apr-15 09:59N 26°27' W 015°01'714.2
2017-Apr-15 09:30N 26°32' W 014°57'714.2
2017-Apr-15 09:00N 26°38' W 014°52'714.1
2017-Apr-15 08:30N 26°44' W 014°47'714.0
2017-Apr-15 08:00N 26°49' W 014°42'714.2
2017-Apr-15 07:30N 26°55' W 014°37'714.3
2017-Apr-15 07:00N 26°60' W 014°32'714.3
2017-Apr-15 06:30N 27°05' W 014°27'714.2
2017-Apr-15 06:00N 27°11' W 014°22'714.4
2017-Apr-15 05:30N 27°17' W 014°16'714.6
2017-Apr-15 05:00N 27°22' W 014°11'714.5
2017-Apr-15 04:30N 27°28' W 014°06'714.4
2017-Apr-15 04:00N 27°34' W 014°02'714.2
2017-Apr-15 03:30N 27°39' W 013°57'714.0
2017-Apr-15 03:00N 27°45' W 013°51'714.2
2017-Apr-15 02:30N 27°50' W 013°46'714.2
2017-Apr-15 02:00N 27°56' W 013°41'714.1
2017-Apr-15 01:30N 28°01' W 013°36'713.8
2017-Apr-15 01:00N 28°07' W 013°31'714.0
2017-Apr-15 00:30N 28°12' W 013°26'714.3
2017-Apr-15 00:00N 28°18' W 013°21'714.3
2017-Apr-14 23:30N 28°23' W 013°16'714.4
2017-Apr-14 23:00N 28°29' W 013°11'714.2
2017-Apr-14 22:30N 28°35' W 013°06'814.0
2017-Apr-14 21:55N 28°41' W 013°00'613.8
2017-Apr-14 21:29N 28°46' W 012°56'713.5
2017-Apr-14 21:00N 28°51' W 012°51'713.5
2017-Apr-14 20:31N 28°56' W 012°47'713.8
2017-Apr-14 20:00N 29°02' W 012°43'713.9
2017-Apr-14 19:29N 29°08' W 012°38'713.7
2017-Apr-14 19:00N 29°13' W 012°33'813.6
2017-Apr-14 18:25N 29°19' W 012°27'713.5
2017-Apr-14 17:53N 29°25' W 012°22'49513.4
2017-Apr-13 05:05N 35°52' W 006°16'2511.2
2017-Apr-13 02:49N 35°58' W 005°46'612.9
2017-Apr-13 02:22N 35°57' W 005°39'512.7
2017-Apr-13 02:00N 35°58' W 005°33'612.1
2017-Apr-13 01:30N 35°60' W 005°26'611.1
2017-Apr-13 01:00N 36°01' W 005°19'510.9
2017-Apr-13 00:31N 36°02' W 005°13'612.4
2017-Apr-13 00:00N 36°03' W 005°05'713.7
2017-Apr-12 23:28N 36°05' W 004°56'714.2
2017-Apr-12 22:58N 36°06' W 004°47'713.5
2017-Apr-12 22:28N 36°08' W 004°39'613.2
2017-Apr-12 22:00N 36°09' W 004°32'612.4
2017-Apr-12 21:30N 36°10' W 004°24'810.4
2017-Apr-12 20:46N 36°11' W 004°15'312.8
2017-Apr-12 20:30N 36°11' W 004°11'612.6
2017-Apr-12 20:00N 36°12' W 004°03'612.7
2017-Apr-12 19:30N 36°13' W 003°55'612.8
2017-Apr-12 19:00N 36°14' W 003°47'612.7
2017-Apr-12 18:30N 36°15' W 003°40'713.2
2017-Apr-12 18:00N 36°17' W 003°32'713.6
2017-Apr-12 17:30N 36°18' W 003°23'713.4
2017-Apr-12 17:00N 36°19' W 003°15'713.3
2017-Apr-12 16:30N 36°20' W 003°07'713.3
2017-Apr-12 16:00N 36°21' W 002°59'713.2
2017-Apr-12 15:30N 36°21' W 002°51'713.4
2017-Apr-12 15:00N 36°22' W 002°42'713.4
2017-Apr-12 14:30N 36°23' W 002°34'1513.9
2017-Apr-12 13:26N 36°26' W 002°16'614.2
2017-Apr-12 13:00N 36°27' W 002°09'4413.4
2017-Apr-12 09:46N 36°34' W 001°15'312.7
2017-Apr-12 09:30N 36°34' W 001°11'10713.3
2017-Apr-12 01:28N 36°51' E 001°01'1213.2
2017-Apr-12 00:32N 36°53' E 001°16'113.0
2017-Apr-12 00:26N 36°54' E 001°17'613.1
2017-Apr-12 00:00N 36°54' E 001°24'713.1
2017-Apr-11 23:30N 36°56' E 001°33'1413.4
2017-Apr-11 22:28N 36°58' E 001°50'6813.3
2017-Apr-11 17:20N 37°08' E 003°14'413.2
2017-Apr-11 17:00N 37°09' E 003°20'713.3
2017-Apr-11 16:30N 37°09' E 003°28'1113.3
2017-Apr-11 15:40N 37°11' E 003°42'213.4
2017-Apr-11 15:30N 37°11' E 003°44'713.5
2017-Apr-11 15:00N 37°12' E 003°53'713.4
2017-Apr-11 14:29N 37°13' E 004°02'1313.2
2017-Apr-11 13:30N 37°16' E 004°18'713.1
2017-Apr-11 12:55N 37°17' E 004°27'5212.9
2017-Apr-11 08:54N 37°22' E 005°32'612.5
2017-Apr-11 08:26N 37°24' E 005°39'613.2
2017-Apr-11 08:00N 37°25' E 005°46'38313.0
2017-Apr-10 02:34N 36°37' E 013°42'113.5
2017-Apr-10 02:30N 36°36' E 013°43'713.6
2017-Apr-10 02:00N 36°34' E 013°51'713.6
2017-Apr-10 01:28N 36°32' E 013°60'613.7
2017-Apr-10 01:00N 36°30' E 014°07'713.5
2017-Apr-10 00:30N 36°28' E 014°15'713.4
2017-Apr-10 00:00N 36°26' E 014°23'713.4
2017-Apr-09 23:30N 36°24' E 014°31'713.1
2017-Apr-09 23:00N 36°23' E 014°39'713.2
2017-Apr-09 22:30N 36°22' E 014°47'49012.4
2017-Apr-08 06:57N 37°06' E 024°56'613.6
2017-Apr-08 06:31N 37°12' E 024°59'612.6
2017-Apr-08 06:01N 37°16' E 025°05'713.3
2017-Apr-08 05:31N 37°17' E 025°13'713.2
2017-Apr-08 05:01N 37°18' E 025°21'713.3
2017-Apr-08 04:30N 37°18' E 025°30'713.2
2017-Apr-08 04:00N 37°20' E 025°38'713.5
2017-Apr-08 03:30N 37°24' E 025°44'612.7
2017-Apr-08 03:00N 37°30' E 025°47'612.8
2017-Apr-08 02:31N 37°36' E 025°44'713.0
2017-Apr-08 01:58N 37°43' E 025°42'613.5
2017-Apr-08 01:30N 37°49' E 025°39'  
Track history (hours):
 
Tides and Currents Weather Stations Pressure Air Temp Water Temp Dewpoint Dewpoint Depression Visibility Wind Speed Wind Dir Waves Ship Positions

Macuru Arrow

Last reported at 2017-Apr-15 14:32 UTC. Time now 2017-Apr-28 22:00 UTC.
Position N 25°30' W 015°36'.
Warning: this ship's position is 13 days out of date.

Length 225 m; draft 8.6 m.

Type: Cargo ship. MMSI: 311032500.

Date/timePositionNaut miles runAvg speedWind from/ knotsBaromVisibWave heightAir tempDewpointWater temp
2017-Apr-15 14:32N 25°30' W 015°36'1214.3
2017-Apr-15 13:40N 25°41' W 015°29'614.1
2017-Apr-15 13:13N 25°47' W 015°26'414.2
2017-Apr-15 12:59N 25°50' W 015°25'714.4
2017-Apr-15 12:30N 25°56' W 015°21'714.5
2017-Apr-15 12:00N 26°03' W 015°18'714.1
2017-Apr-15 11:30N 26°09' W 015°14'714.0
2017-Apr-15 11:00N 26°15' W 015°11'1214.2
2017-Apr-15 10:11N 26°25' W 015°03'314.2
2017-Apr-15 09:59N 26°27' W 015°01'714.2
2017-Apr-15 09:30N 26°32' W 014°57'714.2
2017-Apr-15 09:00N 26°38' W 014°52'714.1
2017-Apr-15 08:30N 26°44' W 014°47'714.0
2017-Apr-15 08:00N 26°49' W 014°42'714.2
2017-Apr-15 07:30N 26°55' W 014°37'714.3
2017-Apr-15 07:00N 26°60' W 014°32'714.3
2017-Apr-15 06:30N 27°05' W 014°27'714.2
2017-Apr-15 06:00N 27°11' W 014°22'714.4
2017-Apr-15 05:30N 27°17' W 014°16'714.6
2017-Apr-15 05:00N 27°22' W 014°11'714.5
2017-Apr-15 04:30N 27°28' W 014°06'714.4
2017-Apr-15 04:00N 27°34' W 014°02'714.2
2017-Apr-15 03:30N 27°39' W 013°57'714.0
2017-Apr-15 03:00N 27°45' W 013°51'714.2
2017-Apr-15 02:30N 27°50' W 013°46'714.2
2017-Apr-15 02:00N 27°56' W 013°41'714.1
2017-Apr-15 01:30N 28°01' W 013°36'713.8
2017-Apr-15 01:00N 28°07' W 013°31'714.0
2017-Apr-15 00:30N 28°12' W 013°26'714.3
2017-Apr-15 00:00N 28°18' W 013°21'714.3
2017-Apr-14 23:30N 28°23' W 013°16'714.4
2017-Apr-14 23:00N 28°29' W 013°11'714.2
2017-Apr-14 22:30N 28°35' W 013°06'814.0
2017-Apr-14 21:55N 28°41' W 013°00'613.8
2017-Apr-14 21:29N 28°46' W 012°56'713.5
2017-Apr-14 21:00N 28°51' W 012°51'713.5
2017-Apr-14 20:31N 28°56' W 012°47'713.8
2017-Apr-14 20:00N 29°02' W 012°43'713.9
2017-Apr-14 19:29N 29°08' W 012°38'713.7
2017-Apr-14 19:00N 29°13' W 012°33'813.6
2017-Apr-14 18:25N 29°19' W 012°27'713.5
2017-Apr-14 17:53N 29°25' W 012°22'49513.4
2017-Apr-13 05:05N 35°52' W 006°16'2511.2
2017-Apr-13 02:49N 35°58' W 005°46'612.9
2017-Apr-13 02:22N 35°57' W 005°39'512.7
2017-Apr-13 02:00N 35°58' W 005°33'612.1
2017-Apr-13 01:30N 35°60' W 005°26'611.1
2017-Apr-13 01:00N 36°01' W 005°19'510.9
2017-Apr-13 00:31N 36°02' W 005°13'612.4
2017-Apr-13 00:00N 36°03' W 005°05'713.7
2017-Apr-12 23:28N 36°05' W 004°56'714.2
2017-Apr-12 22:58N 36°06' W 004°47'713.5
2017-Apr-12 22:28N 36°08' W 004°39'613.2
2017-Apr-12 22:00N 36°09' W 004°32'612.4
2017-Apr-12 21:30N 36°10' W 004°24'810.4
2017-Apr-12 20:46N 36°11' W 004°15'312.8
2017-Apr-12 20:30N 36°11' W 004°11'612.6
2017-Apr-12 20:00N 36°12' W 004°03'612.7
2017-Apr-12 19:30N 36°13' W 003°55'612.8
2017-Apr-12 19:00N 36°14' W 003°47'612.7
2017-Apr-12 18:30N 36°15' W 003°40'713.2
2017-Apr-12 18:00N 36°17' W 003°32'713.6
2017-Apr-12 17:30N 36°18' W 003°23'713.4
2017-Apr-12 17:00N 36°19' W 003°15'713.3
2017-Apr-12 16:30N 36°20' W 003°07'713.3
2017-Apr-12 16:00N 36°21' W 002°59'713.2
2017-Apr-12 15:30N 36°21' W 002°51'713.4
2017-Apr-12 15:00N 36°22' W 002°42'713.4
2017-Apr-12 14:30N 36°23' W 002°34'1513.9
2017-Apr-12 13:26N 36°26' W 002°16'614.2
2017-Apr-12 13:00N 36°27' W 002°09'4413.4
2017-Apr-12 09:46N 36°34' W 001°15'312.7
2017-Apr-12 09:30N 36°34' W 001°11'10713.3
2017-Apr-12 01:28N 36°51' E 001°01'1213.2
2017-Apr-12 00:32N 36°53' E 001°16'113.0
2017-Apr-12 00:26N 36°54' E 001°17'613.1
2017-Apr-12 00:00N 36°54' E 001°24'713.1
2017-Apr-11 23:30N 36°56' E 001°33'1413.4
2017-Apr-11 22:28N 36°58' E 001°50'6813.3
2017-Apr-11 17:20N 37°08' E 003°14'413.2
2017-Apr-11 17:00N 37°09' E 003°20'713.3
2017-Apr-11 16:30N 37°09' E 003°28'1113.3
2017-Apr-11 15:40N 37°11' E 003°42'213.4
2017-Apr-11 15:30N 37°11' E 003°44'713.5
2017-Apr-11 15:00N 37°12' E 003°53'713.4
2017-Apr-11 14:29N 37°13' E 004°02'1313.2
2017-Apr-11 13:30N 37°16' E 004°18'713.1
2017-Apr-11 12:55N 37°17' E 004°27'5212.9
2017-Apr-11 08:54N 37°22' E 005°32'612.5
2017-Apr-11 08:26N 37°24' E 005°39'613.2
2017-Apr-11 08:00N 37°25' E 005°46'38313.0
2017-Apr-10 02:34N 36°37' E 013°42'113.5
2017-Apr-10 02:30N 36°36' E 013°43'713.6
2017-Apr-10 02:00N 36°34' E 013°51'713.6
2017-Apr-10 01:28N 36°32' E 013°60'613.7
2017-Apr-10 01:00N 36°30' E 014°07'713.5
2017-Apr-10 00:30N 36°28' E 014°15'713.4
2017-Apr-10 00:00N 36°26' E 014°23'713.4
2017-Apr-09 23:30N 36°24' E 014°31'713.1
2017-Apr-09 23:00N 36°23' E 014°39'713.2
2017-Apr-09 22:30N 36°22' E 014°47'49012.4
2017-Apr-08 06:57N 37°06' E 024°56'613.6
2017-Apr-08 06:31N 37°12' E 024°59'612.6
2017-Apr-08 06:01N 37°16' E 025°05'713.3
2017-Apr-08 05:31N 37°17' E 025°13'713.2
2017-Apr-08 05:01N 37°18' E 025°21'713.3
2017-Apr-08 04:30N 37°18' E 025°30'713.2
2017-Apr-08 04:00N 37°20' E 025°38'713.5
2017-Apr-08 03:30N 37°24' E 025°44'612.7
2017-Apr-08 03:00N 37°30' E 025°47'612.8
2017-Apr-08 02:31N 37°36' E 025°44'713.0
2017-Apr-08 01:58N 37°43' E 025°42'613.5
2017-Apr-08 01:30N 37°49' E 025°39'  

Dump ship's entire track history